Time;durP1;ratioP1;P1;durP2;ratioP2;P2;SDS_P1;SDS_P2;PMS_P1;PMS_P2;Temp;Humidity;BMP_temperature;BMP_pressure;BME280_temperature;BME280_humidity;BME280_pressure;Samples;Min_cycle;Max_cycle;Signal;HPM_P1;HPM_P2
2022/04/18 00:01:11;;;;;;;4.93;3.22;;;5.50;99.90;;;;;;5064869;28;20024;-72
2022/04/18 00:03:37;;;;;;;5.53;3.55;;;5.60;99.90;;;;;;5054772;28;20036;-73
2022/04/18 00:06:02;;;;;;;4.90;3.53;;;5.70;99.90;;;;;;5065193;28;20527;-73
2022/04/18 00:08:28;;;;;;;5.30;3.22;;;5.60;99.90;;;;;;5067923;28;20056;-73
2022/04/18 00:10:54;;;;;;;4.55;2.70;;;5.40;99.90;;;;;;5064012;28;20089;-73
2022/04/18 00:13:19;;;;;;;4.15;2.92;;;5.50;99.90;;;;;;5058331;28;20016;-73
2022/04/18 00:15:45;;;;;;;4.00;3.17;;;5.60;99.90;;;;;;5061209;28;20541;-73
2022/04/18 00:18:11;;;;;;;4.03;3.20;;;5.40;99.90;;;;;;5066297;28;20487;-73
2022/04/18 00:20:36;;;;;;;5.63;3.08;;;5.40;99.90;;;;;;5064533;28;20025;-74
2022/04/18 00:23:02;;;;;;;4.55;3.10;;;5.50;99.90;;;;;;5066815;28;20053;-73
2022/04/18 00:25:28;;;;;;;4.20;2.83;;;5.50;99.90;;;;;;5062222;28;20567;-72
2022/04/18 00:27:53;;;;;;;4.05;2.63;;;5.30;99.90;;;;;;5059383;28;20028;-73
2022/04/18 00:30:19;;;;;;;2.90;2.63;;;5.20;99.90;;;;;;5071439;28;20047;-73
2022/04/18 00:32:44;;;;;;;4.13;2.60;;;5.20;99.90;;;;;;5059643;28;20108;-73
2022/04/18 00:35:10;;;;;;;3.70;2.88;;;5.20;99.90;;;;;;5061564;28;20029;-73
2022/04/18 00:37:39;;;;;;;3.63;2.83;;;5.20;99.90;;;;;;5066350;28;20493;-73
2022/04/18 00:40:07;;;;;;;4.35;2.67;;;5.00;99.90;;;;;;5063436;28;20063;-72
2022/04/18 00:42:33;;;;;;;3.60;2.42;;;5.20;99.90;;;;;;5067684;28;20021;-73
2022/04/18 00:44:58;;;;;;;4.57;2.67;;;5.50;99.90;;;;;;5064330;28;20394;-73
2022/04/18 00:47:24;;;;;;;2.80;2.45;;;5.40;99.90;;;;;;5059440;28;20479;-72
2022/04/18 00:49:50;;;;;;;3.40;2.70;;;5.10;99.90;;;;;;5071316;28;20393;-72
2022/04/18 00:52:16;;;;;;;4.07;2.65;;;5.20;99.90;;;;;;5072233;28;20029;-72
2022/04/18 00:54:42;;;;;;;2.67;2.45;;;4.90;99.90;;;;;;5060684;28;20159;-72
2022/04/18 00:57:09;;;;;;;2.95;2.60;;;5.00;99.90;;;;;;5065790;28;20033;-73
2022/04/18 00:59:37;;;;;;;3.03;2.45;;;5.00;99.90;;;;;;5062668;28;20090;-73
2022/04/18 01:02:04;;;;;;;3.72;2.80;;;5.00;99.90;;;;;;5058474;28;20389;-73
2022/04/18 01:04:30;;;;;;;2.88;2.50;;;5.10;99.90;;;;;;5058998;28;20111;-72
2022/04/18 01:06:57;;;;;;;2.67;2.30;;;4.90;99.90;;;;;;5070685;28;20017;-73
2022/04/18 01:09:22;;;;;;;4.75;2.80;;;4.90;99.90;;;;;;5072184;28;20021;-74
2022/04/18 01:11:49;;;;;;;3.60;2.85;;;4.70;99.90;;;;;;5067141;28;20029;-72
2022/04/18 01:14:15;;;;;;;3.88;2.50;;;4.80;99.90;;;;;;5062766;28;20033;-72
2022/04/18 01:16:42;;;;;;;2.45;2.22;;;4.50;99.90;;;;;;5058883;28;20021;-72
2022/04/18 01:19:09;;;;;;;3.42;2.80;;;4.50;99.90;;;;;;5060639;28;20028;-72
2022/04/18 01:21:34;;;;;;;4.18;2.58;;;4.70;99.90;;;;;;5056041;28;20493;-72
2022/04/18 01:24:00;;;;;;;2.80;2.47;;;4.70;99.90;;;;;;5060420;28;20036;-72
2022/04/18 01:29:11;;;;;;;3.65;2.90;;;4.70;99.90;;;;;;5066515;28;20039;-72
2022/04/18 01:31:38;;;;;;;2.92;2.60;;;4.80;99.90;;;;;;5071499;28;20077;-72
2022/04/18 01:34:05;;;;;;;3.13;2.53;;;4.70;99.90;;;;;;5071736;28;20039;-72
2022/04/18 01:36:32;;;;;;;4.68;2.75;;;4.90;99.90;;;;;;5063323;28;20575;-72
2022/04/18 01:38:58;;;;;;;4.68;2.78;;;4.90;99.90;;;;;;5068483;28;20066;-72
2022/04/18 01:41:23;;;;;;;4.10;2.95;;;4.90;99.90;;;;;;5071501;28;20116;-71
2022/04/18 01:43:49;;;;;;;3.33;2.65;;;4.90;99.90;;;;;;5071664;28;20031;-72
2022/04/18 01:46:16;;;;;;;2.90;2.60;;;4.60;99.90;;;;;;5059778;28;20035;-72
2022/04/18 01:48:42;;;;;;;3.63;2.75;;;4.50;99.90;;;;;;5057191;28;20092;-72
2022/04/18 01:51:08;;;;;;;3.03;2.72;;;4.40;99.90;;;;;;5060689;28;20120;-72
2022/04/18 01:53:33;;;;;;;3.60;3.10;;;4.40;99.90;;;;;;5073510;28;20082;-72
2022/04/18 01:55:59;;;;;;;3.20;2.60;;;4.10;99.90;;;;;;5062354;28;20091;-72
2022/04/18 01:58:25;;;;;;;2.90;2.50;;;4.20;99.90;;;;;;5065887;28;20064;-72
2022/04/18 02:00:50;;;;;;;4.05;2.90;;;4.20;99.90;;;;;;5062628;28;20429;-72
2022/04/18 02:03:16;;;;;;;4.15;3.25;;;4.10;99.90;;;;;;5064778;28;20020;-72
2022/04/18 02:05:43;;;;;;;3.45;2.97;;;4.10;99.90;;;;;;5060008;28;20485;-72
2022/04/18 02:08:09;;;;;;;3.25;2.95;;;4.00;99.90;;;;;;5055964;28;20487;-72
2022/04/18 02:10:34;;;;;;;5.25;3.65;;;3.90;99.90;;;;;;5058740;28;20040;-72
2022/04/18 02:13:00;;;;;;;3.70;3.05;;;4.00;99.90;;;;;;5071270;28;20123;-72
2022/04/18 02:15:26;;;;;;;3.85;3.00;;;3.80;99.90;;;;;;5062664;28;20029;-72
2022/04/18 02:17:51;;;;;;;3.83;3.20;;;3.80;99.90;;;;;;5052919;28;20029;-72
2022/04/18 02:20:17;;;;;;;4.47;3.15;;;3.90;99.90;;;;;;5062852;28;20033;-72
2022/04/18 02:22:42;;;;;;;3.85;2.90;;;4.00;99.90;;;;;;5064588;28;20039;-72
2022/04/18 02:25:08;;;;;;;3.35;3.05;;;3.90;99.90;;;;;;5059421;28;20477;-72
2022/04/18 02:27:34;;;;;;;3.83;2.80;;;3.90;99.90;;;;;;5057627;28;20934;-72
2022/04/18 02:30:00;;;;;;;3.50;3.13;;;3.90;99.90;;;;;;5062931;28;20159;-72
2022/04/18 02:35:10;;;;;;;4.70;3.30;;;3.70;99.90;;;;;;5062232;28;20043;-72
2022/04/18 02:37:35;;;;;;;5.68;3.40;;;3.70;99.90;;;;;;5057600;28;20032;-72
2022/04/18 02:40:01;;;;;;;3.95;2.95;;;3.80;99.90;;;;;;5060731;28;20025;-72
2022/04/18 02:42:27;;;;;;;3.90;3.50;;;4.10;99.90;;;;;;5062901;28;20036;-72
2022/04/18 02:44:52;;;;;;;5.28;3.17;;;3.90;99.90;;;;;;5061893;28;20048;-72
2022/04/18 02:47:18;;;;;;;4.53;3.17;;;3.80;99.90;;;;;;5067071;28;20083;-72
2022/04/18 02:49:43;;;;;;;3.30;2.88;;;3.90;99.90;;;;;;5053452;28;20505;-71
2022/04/18 02:52:09;;;;;;;3.38;2.95;;;3.90;99.90;;;;;;5068010;28;20033;-72
2022/04/18 02:54:34;;;;;;;4.20;2.92;;;4.10;99.90;;;;;;5065331;28;20032;-71
2022/04/18 02:57:00;;;;;;;5.95;3.22;;;4.00;99.90;;;;;;5061069;28;20036;-72
2022/04/18 02:59:25;;;;;;;5.10;3.08;;;4.00;99.90;;;;;;5064060;28;20067;-72
2022/04/18 03:01:51;;;;;;;4.82;3.33;;;3.80;99.90;;;;;;5067446;28;20033;-73
2022/04/18 03:04:17;;;;;;;4.65;3.00;;;3.60;99.90;;;;;;5064838;28;20413;-71
2022/04/18 03:06:42;;;;;;;5.13;3.22;;;3.50;99.90;;;;;;5059756;28;20043;-72
2022/04/18 03:09:08;;;;;;;4.65;3.00;;;3.60;99.90;;;;;;5079629;28;20390;-72
2022/04/18 03:11:33;;;;;;;4.68;3.30;;;3.40;99.90;;;;;;5057549;28;20440;-73
2022/04/18 03:13:59;;;;;;;3.75;3.08;;;3.40;99.90;;;;;;5062776;28;20025;-73
2022/04/18 03:16:24;;;;;;;3.45;3.00;;;3.60;99.90;;;;;;5070771;28;20124;-73
2022/04/18 03:18:50;;;;;;;3.50;3.05;;;3.30;99.90;;;;;;5064519;28;20032;-73
2022/04/18 03:21:16;;;;;;;6.57;3.67;;;3.40;99.90;;;;;;5065955;28;20383;-72
2022/04/18 03:23:44;;;;;;;4.38;3.25;;;3.40;99.90;;;;;;5062739;28;20020;-73
2022/04/18 03:26:10;;;;;;;3.88;3.58;;;3.30;99.90;;;;;;5060457;28;20029;-72
2022/04/18 03:28:35;;;;;;;4.70;3.33;;;3.30;99.90;;;;;;5063983;28;20104;-72
2022/04/18 03:31:01;;;;;;;3.78;2.92;;;3.20;99.90;;;;;;5065861;28;20068;-72
2022/04/18 03:33:26;;;;;;;3.85;3.47;;;3.20;99.90;;;;;;5063987;28;20016;-71
2022/04/18 03:41:20;;;;;;;4.90;3.45;;;3.10;99.90;;;;;;5062057;28;20035;-73
2022/04/18 03:43:46;;;;;;;4.20;3.25;;;3.00;99.90;;;;;;5072117;28;20025;-73
2022/04/18 03:46:11;;;;;;;4.20;3.15;;;3.10;99.90;;;;;;5061995;28;20033;-73
2022/04/18 03:48:37;;;;;;;5.00;3.35;;;2.90;99.90;;;;;;5060371;28;20017;-73
2022/04/18 03:51:02;;;;;;;3.80;3.45;;;3.00;99.90;;;;;;5073342;28;20036;-73
2022/04/18 03:53:28;;;;;;;4.53;3.05;;;2.90;99.90;;;;;;5071944;28;20035;-73
2022/04/18 03:55:53;;;;;;;3.97;3.58;;;2.90;99.90;;;;;;5061645;28;20017;-74
2022/04/18 03:58:19;;;;;;;4.22;3.47;;;3.00;99.90;;;;;;5058549;28;20498;-74
2022/04/18 04:00:44;;;;;;;4.93;3.70;;;2.80;99.90;;;;;;5073133;28;20103;-73
2022/04/18 04:03:11;;;;;;;3.58;3.28;;;2.80;99.90;;;;;;5058453;28;20108;-74
2022/04/18 04:05:37;;;;;;;3.47;3.10;;;2.90;99.90;;;;;;5061169;28;20111;-72
2022/04/18 04:08:03;;;;;;;4.60;3.53;;;2.70;99.90;;;;;;5073137;28;20024;-73
2022/04/18 04:10:29;;;;;;;4.10;3.28;;;2.70;99.90;;;;;;5072902;28;20024;-72
2022/04/18 04:12:55;;;;;;;8.23;4.05;;;2.60;99.90;;;;;;5071816;28;20555;-73
2022/04/18 04:15:21;;;;;;;5.25;3.67;;;2.50;99.90;;;;;;5052905;28;20029;-73
2022/04/18 04:17:46;;;;;;;4.32;3.55;;;2.60;99.90;;;;;;5066246;28;20032;-73
2022/04/18 04:20:12;;;;;;;4.22;3.50;;;2.50;99.90;;;;;;5059124;28;20016;-73
2022/04/18 04:22:49;;;;;;;3.70;3.33;;;2.60;99.90;;;;;;5057826;28;20509;-74
2022/04/18 04:25:18;;;;;;;3.90;3.40;;;2.60;99.90;;;;;;5071546;28;20027;-74
2022/04/18 04:27:44;;;;;;;3.63;3.30;;;2.40;99.90;;;;;;5059579;28;20442;-74
2022/04/18 04:30:10;;;;;;;4.00;3.60;;;2.40;99.90;;;;;;5063304;28;20100;-73
2022/04/18 04:32:35;;;;;;;4.95;3.90;;;2.40;99.90;;;;;;5066148;28;20060;-73
2022/04/18 04:35:01;;;;;;;4.80;3.50;;;2.60;99.90;;;;;;5060592;28;20063;-73
2022/04/18 04:37:26;;;;;;;4.10;3.40;;;2.70;99.90;;;;;;5059355;28;20029;-74
2022/04/18 04:39:52;;;;;;;5.13;3.58;;;2.50;99.90;;;;;;5061955;28;20474;-74
2022/04/18 04:42:19;;;;;;;3.75;3.30;;;2.60;99.90;;;;;;5067061;28;20555;-74
2022/04/18 04:44:44;;;;;;;4.15;3.65;;;2.50;99.90;;;;;;5063370;28;20099;-73
2022/04/18 04:47:11;;;;;;;4.82;3.55;;;2.50;99.90;;;;;;5065697;28;20108;-74
2022/04/18 04:49:37;;;;;;;4.72;3.80;;;2.40;99.90;;;;;;5062497;28;20024;-74
2022/04/18 04:52:04;;;;;;;4.22;3.83;;;2.50;99.90;;;;;;5070826;28;20031;-74
2022/04/18 04:54:29;;;;;;;4.25;3.67;;;2.40;99.90;;;;;;5062261;28;20024;-74
2022/04/18 04:56:55;;;;;;;4.70;3.67;;;2.50;99.90;;;;;;5065796;28;20025;-70
2022/04/18 04:59:20;;;;;;;4.80;3.30;;;2.40;99.90;;;;;;5060843;28;20474;-72
2022/04/18 05:01:46;;;;;;;4.00;3.50;;;2.50;99.90;;;;;;5057416;28;20048;-73
2022/04/18 05:04:11;;;;;;;4.38;3.90;;;2.70;99.90;;;;;;5072290;28;20032;-72
2022/04/18 05:06:37;;;;;;;4.75;4.15;;;2.80;99.90;;;;;;5058638;28;20401;-73
2022/04/18 05:09:02;;;;;;;4.30;3.90;;;2.80;99.90;;;;;;5062706;28;20033;-73
2022/04/18 05:11:28;;;;;;;3.80;3.30;;;2.80;99.90;;;;;;5067379;28;20035;-72
2022/04/18 05:13:54;;;;;;;3.83;3.40;;;2.80;99.90;;;;;;5070668;28;20111;-70
2022/04/18 05:16:20;;;;;;;5.25;4.07;;;3.10;99.90;;;;;;5058405;28;20021;-73
2022/04/18 05:18:46;;;;;;;3.83;3.53;;;3.00;99.90;;;;;;5062656;28;20540;-73
2022/04/18 05:21:11;;;;;;;4.03;3.33;;;3.00;99.90;;;;;;5065066;28;20497;-73
2022/04/18 05:23:37;;;;;;;4.25;3.53;;;3.20;99.90;;;;;;5051907;28;20029;-73
2022/04/18 05:26:03;;;;;;;3.83;3.53;;;3.40;99.90;;;;;;5065227;28;20045;-72
2022/04/18 05:28:29;;;;;;;5.30;3.50;;;3.50;99.90;;;;;;5061511;28;20630;-73
2022/04/18 05:30:54;;;;;;;3.95;3.03;;;3.60;99.90;;;;;;5055456;28;20033;-72
2022/04/18 05:33:21;;;;;;;5.95;3.58;;;3.60;99.90;;;;;;5060846;28;20025;-72
2022/04/18 05:35:47;;;;;;;4.88;3.40;;;3.70;99.90;;;;;;5054354;28;20055;-73
2022/04/18 05:38:14;;;;;;;4.80;3.58;;;3.80;99.90;;;;;;5061093;28;20028;-72
2022/04/18 05:40:42;;;;;;;4.13;3.45;;;3.80;99.90;;;;;;5071823;28;20055;-73
2022/04/18 05:43:08;;;;;;;4.07;3.40;;;3.80;99.90;;;;;;5071650;28;20060;-73
2022/04/18 05:45:36;;;;;;;4.00;3.42;;;3.90;99.90;;;;;;5069054;28;20170;-73
2022/04/18 05:48:01;;;;;;;4.50;3.47;;;3.90;99.90;;;;;;5060150;28;20032;-73
2022/04/18 05:50:27;;;;;;;3.58;3.20;;;3.80;99.90;;;;;;5071605;28;20047;-73
2022/04/18 05:52:54;;;;;;;5.10;3.58;;;3.90;99.90;;;;;;5069338;28;20449;-73
2022/04/18 05:55:20;;;;;;;3.95;3.65;;;3.80;99.90;;;;;;5054242;28;20017;-72
2022/04/18 05:57:45;;;;;;;4.93;3.50;;;4.00;99.90;;;;;;5062156;28;20043;-73
2022/04/18 06:00:11;;;;;;;4.32;3.78;;;4.20;99.90;;;;;;5071472;28;20377;-72
2022/04/18 06:02:37;;;;;;;4.25;3.53;;;4.30;99.90;;;;;;5060967;28;20029;-73
2022/04/18 06:05:03;;;;;;;3.88;3.45;;;4.30;99.90;;;;;;5064963;28;20509;-72
2022/04/18 06:07:28;;;;;;;4.32;3.92;;;4.30;99.90;;;;;;5061724;28;20444;-72
2022/04/18 06:09:54;;;;;;;4.53;3.42;;;4.40;99.90;;;;;;5058084;28;20440;-73
2022/04/18 06:12:20;;;;;;;4.55;3.42;;;4.50;99.90;;;;;;5060925;28;20108;-73
2022/04/18 06:14:46;;;;;;;4.90;3.47;;;4.50;99.90;;;;;;5053772;28;20086;-72
2022/04/18 06:17:11;;;;;;;3.95;3.30;;;4.80;99.90;;;;;;5060870;28;20021;-73
2022/04/18 06:19:37;;;;;;;5.63;3.17;;;4.80;99.90;;;;;;5063385;28;20493;-74
2022/04/18 06:22:03;;;;;;;4.32;3.45;;;4.80;99.90;;;;;;5051163;28;20128;-72
2022/04/18 06:24:29;;;;;;;5.22;3.95;;;5.00;99.90;;;;;;5068950;28;20025;-72
2022/04/18 06:26:54;;;;;;;4.22;3.63;;;5.00;99.90;;;;;;5080407;28;20033;-72
2022/04/18 06:29:20;;;;;;;3.90;3.50;;;5.20;99.90;;;;;;5068412;28;20036;-73
2022/04/18 06:31:46;;;;;;;3.88;3.47;;;5.40;99.90;;;;;;5063798;28;20032;-72
2022/04/18 06:34:12;;;;;;;4.28;3.70;;;5.50;99.90;;;;;;5058218;28;20028;-73
2022/04/18 06:36:38;;;;;;;5.28;4.10;;;5.60;99.90;;;;;;5054868;28;20115;-73
2022/04/18 06:39:04;;;;;;;4.05;3.65;;;5.80;99.90;;;;;;5068364;28;20424;-73
2022/04/18 06:41:30;;;;;;;4.15;3.33;;;6.00;99.90;;;;;;5064721;28;20150;-72
2022/04/18 06:43:55;;;;;;;4.53;3.72;;;6.10;99.90;;;;;;5070291;28;20081;-74
2022/04/18 06:46:21;;;;;;;4.75;3.88;;;6.20;99.90;;;;;;5064913;28;20470;-72
2022/04/18 06:48:46;;;;;;;3.92;3.55;;;6.30;99.90;;;;;;5070983;28;20047;-72
2022/04/18 06:51:12;;;;;;;5.15;3.72;;;6.50;99.90;;;;;;5064269;28;20037;-73
2022/04/18 06:53:37;;;;;;;4.35;3.50;;;6.70;99.90;;;;;;5058025;28;20092;-71
2022/04/18 06:58:47;;;;;;;4.72;3.20;;;7.00;99.90;;;;;;5069211;28;20082;-73
2022/04/18 07:01:12;;;;;;;5.03;3.45;;;7.00;99.90;;;;;;5054149;28;20021;-72
2022/04/18 07:03:38;;;;;;;4.45;2.97;;;7.20;99.90;;;;;;5073253;28;20389;-72
2022/04/18 07:06:03;;;;;;;4.25;3.53;;;7.30;99.90;;;;;;5062112;28;20025;-73
2022/04/18 07:08:29;;;;;;;5.20;3.40;;;7.40;99.90;;;;;;5067818;28;20021;-73
2022/04/18 07:10:54;;;;;;;4.90;4.00;;;7.50;99.90;;;;;;5066369;28;20035;-75
2022/04/18 07:13:20;;;;;;;3.88;3.40;;;7.60;99.90;;;;;;5060938;28;20020;-73
2022/04/18 07:15:45;;;;;;;4.85;3.65;;;7.70;99.90;;;;;;5072665;28;20025;-73
2022/04/18 07:18:11;;;;;;;3.83;3.38;;;7.80;99.90;;;;;;5088135;28;20224;-73
2022/04/18 07:20:36;;;;;;;4.13;3.20;;;8.00;99.90;;;;;;5072335;28;20024;-73
2022/04/18 07:23:02;;;;;;;4.72;2.83;;;8.10;99.90;;;;;;5060750;28;20029;-73
2022/04/18 07:25:28;;;;;;;4.47;3.47;;;8.10;99.90;;;;;;5072532;28;20024;-73
2022/04/18 07:27:53;;;;;;;4.13;3.50;;;8.30;99.90;;;;;;5073883;28;20472;-73
2022/04/18 07:30:19;;;;;;;5.18;3.30;;;8.40;99.90;;;;;;5089272;28;20081;-73
2022/04/18 07:32:44;;;;;;;3.85;3.17;;;8.50;99.90;;;;;;5069849;28;20506;-73
2022/04/18 07:35:11;;;;;;;4.53;3.00;;;8.70;99.90;;;;;;5053239;28;20037;-73
2022/04/18 07:38:48;;;;;;;4.38;3.03;;;8.90;99.90;;;;;;5067077;28;20025;-73
2022/04/18 07:40:23;;;;;;;3.40;3.10;;;9.00;99.90;;;;;;5053083;28;20029;-73
2022/04/18 07:42:48;;;;;;;5.00;3.03;;;9.10;99.90;;;;;;5053629;28;20075;-73
2022/04/18 07:45:14;;;;;;;3.80;3.03;;;9.30;99.90;;;;;;5053451;28;20040;-73
2022/04/18 07:47:39;;;;;;;4.50;3.03;;;9.30;99.90;;;;;;5052231;28;20064;-73
2022/04/18 07:50:05;;;;;;;3.88;2.63;;;9.40;99.90;;;;;;5067275;28;20032;-73
2022/04/18 07:52:31;;;;;;;3.50;3.08;;;9.40;99.90;;;;;;5073201;28;20032;-73
2022/04/18 07:54:56;;;;;;;3.67;2.72;;;9.70;99.90;;;;;;5073059;28;20025;-73
2022/04/18 07:57:22;;;;;;;3.70;2.90;;;9.60;99.90;;;;;;5072073;28;20378;-73
2022/04/18 07:59:47;;;;;;;3.63;2.72;;;9.50;99.90;;;;;;5073319;28;20031;-73
2022/04/18 08:02:13;;;;;;;4.05;2.75;;;9.70;99.90;;;;;;5066316;28;20029;-73
2022/04/18 08:04:39;;;;;;;4.70;2.85;;;9.80;99.90;;;;;;5053150;28;20113;-73
2022/04/18 08:07:05;;;;;;;3.45;2.83;;;9.90;99.90;;;;;;5059721;28;20028;-73
2022/04/18 08:09:30;;;;;;;2.90;2.42;;;9.90;99.90;;;;;;5072965;28;20036;-73
2022/04/18 08:11:56;;;;;;;3.47;2.75;;;10.10;99.90;;;;;;5072957;28;20032;-73
2022/04/18 08:14:21;;;;;;;3.42;2.17;;;10.30;99.90;;;;;;5088416;28;20016;-73
2022/04/18 08:16:47;;;;;;;2.35;1.50;;;10.50;99.90;;;;;;5059686;28;20029;-73
2022/04/18 08:19:12;;;;;;;3.00;1.90;;;10.70;99.90;;;;;;5071566;28;20017;-73
2022/04/18 08:21:38;;;;;;;3.20;1.98;;;10.60;99.90;;;;;;5072602;28;20397;-73
2022/04/18 08:24:04;;;;;;;3.92;1.90;;;10.90;99.90;;;;;;5072764;28;20032;-73
2022/04/18 08:26:29;;;;;;;3.65;1.85;;;11.00;99.90;;;;;;5072636;28;20112;-73
2022/04/18 08:28:55;;;;;;;3.72;2.00;;;11.10;99.90;;;;;;5072676;28;20082;-73
2022/04/18 08:31:20;;;;;;;1.90;1.70;;;11.20;99.90;;;;;;5087919;28;20029;-73
2022/04/18 08:33:46;;;;;;;2.45;1.83;;;11.10;99.90;;;;;;5072571;28;20016;-73
2022/04/18 08:36:11;;;;;;;2.65;2.00;;;11.30;99.90;;;;;;5081773;28;20029;-73
2022/04/18 08:38:37;;;;;;;2.58;1.70;;;11.30;99.90;;;;;;5051112;28;20514;-73
2022/04/18 08:41:09;;;;;;;3.65;1.80;;;11.20;99.90;;;;;;5058460;28;20029;-73
2022/04/18 08:43:35;;;;;;;2.95;1.83;;;11.40;99.90;;;;;;5072284;28;20024;-73
2022/04/18 08:46:06;;;;;;;2.95;1.88;;;11.60;99.90;;;;;;5059041;28;20493;-73
2022/04/18 08:54:05;;;;;;;2.15;1.70;;;11.40;99.90;;;;;;5072385;28;20039;-73
2022/04/18 08:56:31;;;;;;;2.47;1.88;;;11.60;99.90;;;;;;5071980;28;20081;-73
2022/04/18 08:58:57;;;;;;;2.05;1.85;;;11.70;99.90;;;;;;5065519;28;20024;-73
2022/04/18 09:01:22;;;;;;;2.95;1.98;;;11.90;99.90;;;;;;5051893;28;20028;-73
2022/04/18 09:03:48;;;;;;;3.20;1.90;;;11.80;99.90;;;;;;5065331;28;20033;-73
2022/04/18 09:06:14;;;;;;;3.08;1.88;;;12.00;99.70;;;;;;5065464;28;20558;-73
2022/04/18 09:08:57;;;;;;;2.05;1.80;;;12.00;99.80;;;;;;5058486;28;20025;-73
2022/04/18 09:11:29;;;;;;;2.28;1.63;;;11.90;99.10;;;;;;5071785;28;20482;-73
2022/04/18 09:14:14;;;;;;;2.00;1.50;;;11.90;99.70;;;;;;5062445;28;20029;-73
2022/04/18 09:16:41;;;;;;;2.55;1.90;;;12.10;99.80;;;;;;5063992;28;20025;-73
2022/04/18 09:19:10;;;;;;;2.40;1.80;;;12.20;98.50;;;;;;5051814;28;20039;-73
2022/04/18 09:21:45;;;;;;;2.53;1.63;;;12.00;98.80;;;;;;5063665;28;20036;-73
2022/04/18 09:24:37;;;;;;;1.80;1.60;;;12.10;98.60;;;;;;5066407;28;20028;-73
2022/04/18 09:27:25;;;;;;;2.67;1.67;;;11.90;96.30;;;;;;5069206;28;20310;-73
2022/04/18 09:30:06;;;;;;;2.35;1.70;;;12.00;99.10;;;;;;5059551;28;20027;-73
2022/04/18 09:32:32;;;;;;;3.95;2.03;;;12.30;98.70;;;;;;5054669;28;20025;-73
2022/04/18 09:35:04;;;;;;;3.25;1.70;;;12.40;97.70;;;;;;5077537;22;20494;-71
2022/04/18 09:37:31;;;;;;;2.95;1.75;;;12.60;98.70;;;;;;5071594;28;20674;-71
2022/04/18 09:39:57;;;;;;;1.88;1.60;;;12.60;98.60;;;;;;5071724;28;20025;-71
2022/04/18 09:42:24;;;;;;;2.78;2.00;;;12.70;98.20;;;;;;5089266;28;20362;-71
2022/04/18 09:44:50;;;;;;;3.92;2.10;;;12.60;97.60;;;;;;5090347;28;20031;-71
2022/04/18 09:47:18;;;;;;;2.15;1.88;;;12.60;97.40;;;;;;5092238;28;20496;-71
2022/04/18 09:49:45;;;;;;;2.40;1.65;;;12.80;97.50;;;;;;5080532;28;20477;-70
2022/04/18 09:52:13;;;;;;;2.10;1.77;;;12.80;96.30;;;;;;5069927;28;20056;-72
2022/04/18 09:54:50;;;;;;;2.20;2.00;;;12.30;95.30;;;;;;5071537;28;20017;-71
2022/04/18 09:57:23;;;;;;;4.55;1.90;;;12.20;97.90;;;;;;5071571;28;20025;-70
2022/04/18 09:59:51;;;;;;;2.70;1.60;;;12.40;97.20;;;;;;5075501;28;20027;-71
2022/04/18 10:02:17;;;;;;;3.60;2.00;;;12.60;96.90;;;;;;5074175;28;20024;-71
2022/04/18 10:04:43;;;;;;;1.70;1.60;;;12.80;96.60;;;;;;5075426;28;20036;-71
2022/04/18 10:07:10;;;;;;;2.80;2.08;;;12.50;96.70;;;;;;5075466;28;20116;-71
2022/04/18 10:09:38;;;;;;;14.25;1.98;;;12.90;97.60;;;;;;5075122;28;20024;-71
2022/04/18 10:12:04;;;;;;;3.15;1.80;;;13.00;97.20;;;;;;5075075;28;20028;-71
2022/04/18 10:14:31;;;;;;;2.72;1.75;;;13.10;96.80;;;;;;5075155;28;20028;-71
2022/04/18 10:16:57;;;;;;;3.25;1.80;;;13.40;97.00;;;;;;5075179;28;20025;-71
2022/04/18 10:19:59;;;;;;;2.05;1.85;;;13.20;95.90;;;;;;5075081;28;20017;-72
2022/04/18 10:22:31;;;;;;;4.38;1.70;;;13.30;95.70;;;;;;5074939;28;20031;-71
2022/04/18 10:25:16;;;;;;;2.90;1.55;;;13.40;96.00;;;;;;5073713;28;20496;-70
2022/04/18 10:27:59;;;;;;;2.97;1.70;;;13.40;95.50;;;;;;5075037;28;20020;-71
2022/04/18 10:30:25;;;;;;;1.85;1.65;;;13.10;94.00;;;;;;5073452;28;20107;-71
2022/04/18 10:32:52;;;;;;;5.60;2.03;;;13.10;95.10;;;;;;5074769;28;20112;-70
2022/04/18 10:35:17;;;;;;;3.08;1.73;;;13.10;94.60;;;;;;5074599;28;20111;-71
2022/04/18 10:37:43;;;;;;;2.20;1.75;;;13.30;95.90;;;;;;5074664;28;20549;-70
2022/04/18 10:40:10;;;;;;;2.97;1.60;;;13.10;93.70;;;;;;5074880;28;20031;-70
2022/04/18 10:42:37;;;;;;;1.95;1.75;;;13.20;94.60;;;;;;5074671;28;20115;-71
2022/04/18 10:45:17;;;;;;;2.05;1.50;;;13.20;95.70;;;;;;5073797;28;20048;-71
2022/04/18 10:48:08;;;;;;;2.47;1.40;;;13.50;93.80;;;;;;5075439;28;20028;-71
2022/04/18 10:50:42;;;;;;;3.05;1.80;;;13.60;94.70;;;;;;5074556;28;20497;-71
2022/04/18 10:53:08;;;;;;;1.90;1.65;;;13.50;93.60;;;;;;5075191;28;20397;-72
2022/04/18 10:55:38;;;;;;;2.05;1.83;;;13.70;93.80;;;;;;5074819;28;20017;-70
2022/04/18 10:58:17;;;;;;;2.92;1.73;;;13.50;92.50;;;;;;5073713;28;20016;-72
2022/04/18 11:00:51;;;;;;;2.20;1.85;;;13.60;93.00;;;;;;5074677;28;20025;-71
2022/04/18 11:03:35;;;;;;;2.72;1.75;;;13.60;91.90;;;;;;5074859;28;20432;-70
2022/04/18 11:06:15;;;;;;;2.58;1.60;;;13.90;91.50;;;;;;5074172;28;20500;-71
2022/04/18 11:08:41;;;;;;;1.88;1.50;;;13.70;91.00;;;;;;5073099;28;20024;-71
2022/04/18 11:11:17;;;;;;;1.98;1.65;;;13.90;92.30;;;;;;5073589;28;20108;-70
2022/04/18 11:13:46;;;;;;;1.92;1.50;;;14.00;91.00;;;;;;5062411;28;20543;-70
2022/04/18 11:16:27;;;;;;;2.38;1.60;;;13.90;90.80;;;;;;5074228;28;20071;-71
2022/04/18 11:19:14;;;;;;;1.65;1.50;;;14.10;90.90;;;;;;5084853;28;20027;-71
2022/04/18 11:21:56;;;;;;;1.90;1.35;;;14.20;90.40;;;;;;5094524;28;20053;-71
2022/04/18 11:24:48;;;;;;;2.70;1.60;;;14.50;91.30;;;;;;5094479;28;20020;-70
2022/04/18 11:27:20;;;;;;;1.50;1.40;;;14.30;90.90;;;;;;5094431;28;20020;-69
2022/04/18 11:29:57;;;;;;;3.75;1.60;;;14.40;90.50;;;;;;5094519;28;20028;-70
2022/04/18 11:32:28;;;;;;;2.75;1.70;;;14.30;89.90;;;;;;5092257;28;20500;-70
2022/04/18 11:34:55;;;;;;;2.10;1.77;;;14.70;90.40;;;;;;5074260;28;20391;-71
2022/04/18 11:37:24;;;;;;;2.28;1.50;;;14.90;90.80;;;;;;5062557;28;20412;-70
2022/04/18 11:39:55;;;;;;;2.33;1.70;;;14.90;90.60;;;;;;5092854;28;20039;-70
2022/04/18 11:42:23;;;;;;;2.90;1.48;;;15.10;90.80;;;;;;5093882;28;20035;-70
2022/04/18 11:44:50;;;;;;;3.42;1.60;;;15.10;91.70;;;;;;5094215;28;20033;-69
2022/04/18 11:47:23;;;;;;;3.08;1.50;;;15.30;91.80;;;;;;5093841;28;20024;-69
2022/04/18 11:49:58;;;;;;;2.75;1.35;;;15.30;87.50;;;;;;5080587;28;20050;-71
2022/04/18 11:52:29;;;;;;;1.52;1.42;;;15.30;86.30;;;;;;5073119;28;20416;-69
2022/04/18 11:55:05;;;;;;;2.05;1.55;;;15.40;88.20;;;;;;5073250;28;20068;-69
2022/04/18 11:57:32;;;;;;;;;;;15.40;85.70;;;;;;5073936;28;20024;-69
2022/04/18 11:59:58;;;;;;;2.65;1.52;;;15.40;84.10;;;;;;5072136;28;19912;-69
2022/04/18 12:08:07;;;;;;;2.10;1.77;;;16.30;86.30;;;;;;5073414;28;20055;-69
2022/04/18 12:10:35;;;;;;;2.00;1.60;;;16.30;86.40;;;;;;5071689;28;20036;-70
2022/04/18 12:13:07;;;;;;;2.60;1.77;;;16.10;86.40;;;;;;5088586;28;20016;-69
2022/04/18 12:15:34;;;;;;;2.38;1.73;;;15.50;85.60;;;;;;5093500;28;20420;-69
2022/04/18 12:18:11;;;;;;;2.80;1.80;;;15.40;84.10;;;;;;5076608;28;20017;-71
2022/04/18 12:20:41;;;;;;;2.88;1.92;;;15.90;87.30;;;;;;5083976;28;20028;-69
2022/04/18 12:23:08;;;;;;;1.75;1.63;;;16.00;86.80;;;;;;5092482;28;20024;-69
2022/04/18 12:25:34;;;;;;;2.47;1.70;;;16.30;85.70;;;;;;5093025;28;20024;-70
2022/04/18 12:28:03;;;;;;;1.55;1.38;;;16.90;83.10;;;;;;5091978;28;20039;-69
2022/04/18 12:30:29;;;;;;;2.03;1.60;;;17.30;82.10;;;;;;5091588;28;20134;-69
2022/04/18 12:32:55;;;;;;;2.20;2.00;;;17.50;81.50;;;;;;5091445;28;20540;-69
2022/04/18 12:35:46;;;;;;;2.38;1.90;;;17.80;83.30;;;;;;5092590;28;20073;-69
2022/04/18 12:38:12;;;;;;;1.88;1.70;;;18.10;77.50;;;;;;5091367;28;20021;-69
2022/04/18 12:40:40;;;;;;;2.40;1.80;;;17.30;79.10;;;;;;5091225;28;20178;-69
2022/04/18 12:43:07;;;;;;;1.77;1.60;;;17.20;82.20;;;;;;5091412;28;20056;-69
2022/04/18 12:45:50;;;;;;;3.42;2.10;;;17.50;79.60;;;;;;5075867;28;20082;-70
2022/04/18 12:48:24;;;;;;;2.58;1.80;;;18.30;79.50;;;;;;5072351;28;20060;-69
2022/04/18 12:50:51;;;;;;;2.50;1.90;;;18.10;76.80;;;;;;5058817;28;20032;-69
2022/04/18 12:53:18;;;;;;;2.25;1.60;;;18.60;77.70;;;;;;5072486;28;20116;-71
2022/04/18 12:55:43;;;;;;;3.13;2.50;;;18.50;76.30;;;;;;5059352;28;20035;-70
2022/04/18 12:58:18;;;;;;;2.85;2.10;;;19.40;76.30;;;;;;5072075;28;20104;-73
2022/04/18 13:00:49;;;;;;;3.95;1.80;;;18.80;74.50;;;;;;5071780;28;20081;-70
2022/04/18 13:03:17;;;;;;;1.88;1.58;;;19.30;74.50;;;;;;5071884;28;20020;-72
2022/04/18 13:05:47;;;;;;;4.07;1.80;;;19.70;73.40;;;;;;5072004;28;20020;-70
2022/04/18 13:08:15;;;;;;;3.47;1.95;;;19.20;75.10;;;;;;5072065;28;20016;-69
2022/04/18 13:10:41;;;;;;;1.85;1.60;;;19.10;74.30;;;;;;5081695;28;20498;-70
2022/04/18 13:13:11;;;;;;;1.77;1.63;;;19.80;74.60;;;;;;5092040;28;20062;-70
2022/04/18 13:15:39;;;;;;;2.08;1.75;;;19.40;80.10;;;;;;5092554;28;20473;-70
2022/04/18 13:18:10;;;;;;;3.38;1.70;;;19.30;73.90;;;;;;5074716;28;20035;-70
2022/04/18 13:20:38;;;;;;;2.15;1.70;;;19.90;73.60;;;;;;5070752;28;20034;-70